createdAt,value
2022-09-12T00:01:17.538Z,100405.72
2022-09-12T00:04:19.670Z,100392.13
2022-09-12T00:07:21.752Z,100399.00
2022-09-12T00:10:23.765Z,100417.34
2022-09-12T00:13:25.811Z,100406.91
2022-09-12T00:16:30.225Z,100413.53
2022-09-12T00:19:32.417Z,100408.91
2022-09-12T00:22:35.102Z,100406.19
2022-09-12T00:25:45.099Z,100403.44
2022-09-12T00:28:48.093Z,100394.78
2022-09-12T00:31:50.223Z,100400.72
2022-09-12T00:34:52.261Z,100389.06
2022-09-12T00:37:54.335Z,100395.97
2022-09-12T00:40:56.481Z,100405.94
2022-09-12T00:44:22.997Z,100403.09
2022-09-12T00:47:32.062Z,100410.22
2022-09-12T00:50:34.083Z,100405.09
2022-09-12T00:53:36.543Z,100407.00
2022-09-12T00:56:41.824Z,100404.75
2022-09-12T00:59:49.346Z,100408.09
2022-09-12T01:03:01.125Z,100396.44
2022-09-12T01:06:11.105Z,100398.22
2022-09-12T01:09:17.563Z,100402.84
2022-09-12T01:12:19.647Z,100385.97
2022-09-12T01:15:21.669Z,100397.00
2022-09-12T01:18:29.828Z,100403.09
2022-09-12T01:21:41.707Z,100401.19
2022-09-12T01:24:58.713Z,100385.13
2022-09-12T01:28:18.360Z,100399.53
2022-09-12T01:31:29.253Z,100397.63
2022-09-12T01:34:52.418Z,100399.28
2022-09-12T01:38:23.243Z,100398.44
2022-09-12T01:41:58.103Z,100390.25
2022-09-12T01:45:16.734Z,100395.13
2022-09-12T01:48:31.323Z,100392.63
2022-09-12T01:51:39.020Z,100402.47
2022-09-12T01:54:50.523Z,100409.84
2022-09-12T02:01:07.986Z,100416.63
2022-09-12T02:04:13.151Z,100411.16
2022-09-12T02:07:20.718Z,100390.59
2022-09-12T02:10:32.520Z,100388.69
2022-09-12T02:14:00.606Z,100411.63
2022-09-12T02:17:10.899Z,100407.19
2022-09-12T02:20:46.896Z,100397.81
2022-09-12T02:23:55.581Z,100391.16
2022-09-12T02:27:11.598Z,100406.16
2022-09-12T02:30:19.515Z,100399.50
2022-09-12T02:33:36.812Z,100406.63
2022-09-12T02:37:06.726Z,100406.63
2022-09-12T02:40:10.014Z,100399.13
2022-09-12T02:43:12.224Z,100406.84
2022-09-12T02:46:28.376Z,100388.06
2022-09-12T02:49:30.903Z,100406.72
2022-09-12T02:52:33.209Z,100425.97
2022-09-12T02:55:37.562Z,100435.84
2022-09-12T02:58:39.568Z,100433.78
2022-09-12T03:01:58.943Z,100433.78
2022-09-12T03:05:17.190Z,100434.66
2022-09-12T03:08:51.218Z,100438.78
2022-09-12T03:12:08.612Z,100439.63
2022-09-12T03:15:33.874Z,100433.78
2022-09-12T03:18:58.723Z,100438.78
2022-09-12T03:22:22.656Z,100440.47
2022-09-12T03:25:57.730Z,100436.31
2022-09-12T03:29:02.824Z,100449.13
2022-09-12T03:32:04.836Z,100447.22
2022-09-12T03:35:07.227Z,100449.13
2022-09-12T03:38:09.556Z,100456.72
2022-09-12T03:41:11.724Z,100457.56
2022-09-12T03:44:13.847Z,100461.81
2022-09-12T03:47:15.913Z,100467.28
2022-09-12T03:50:18.378Z,100482.59
2022-09-12T03:53:20.448Z,100480.94
2022-09-12T03:56:22.583Z,100484.97
2022-09-12T03:59:24.974Z,100472.81
2022-09-12T04:02:29.216Z,100475.47
2022-09-12T04:05:31.203Z,100478.56
2022-09-12T04:08:33.542Z,100478.22
2022-09-12T04:11:36.104Z,100487.03
2022-09-12T04:14:38.653Z,100482.59
2022-09-12T04:17:40.690Z,100479.41
2022-09-12T04:20:42.824Z,100477.75
2022-09-12T04:23:45.689Z,100483.22
2022-09-12T04:26:47.774Z,100484.66
2022-09-12T04:29:49.885Z,100478.47
2022-09-12T04:32:51.975Z,100491.41
2022-09-12T04:35:53.969Z,100499.97
2022-09-12T04:38:56.545Z,100496.16
2022-09-12T04:41:58.530Z,100503.31
2022-09-12T04:45:00.565Z,100507.34
2022-09-12T04:48:02.883Z,100509.53
2022-09-12T04:51:19.047Z,100525.44
2022-09-12T04:54:21.537Z,100508.13
2022-09-12T04:57:23.683Z,100517.75
2022-09-12T05:00:25.682Z,100518.03
2022-09-12T05:03:28.306Z,100519.00
2022-09-12T05:06:33.248Z,100505.19
2022-09-12T05:09:35.282Z,100519.22
2022-09-12T05:12:37.417Z,100497.09
2022-09-12T05:15:40.178Z,100527.94
2022-09-12T05:18:43.073Z,100522.47
2022-09-12T05:21:45.039Z,100518.41
2022-09-12T05:24:50.585Z,100527.53
2022-09-12T05:27:53.593Z,100530.38
2022-09-12T05:31:25.925Z,100537.44
2022-09-12T05:34:28.092Z,100521.63
2022-09-12T05:37:30.486Z,100530.34
2022-09-12T05:40:33.279Z,100521.56
2022-09-12T05:43:36.033Z,100532.09
2022-09-12T05:46:40.444Z,100529.25
2022-09-12T05:49:45.312Z,100535.28
2022-09-12T05:52:47.346Z,100533.47
2022-09-12T05:55:49.527Z,100508.16
2022-09-12T05:59:02.820Z,100524.97
2022-09-12T06:02:04.932Z,100527.47
2022-09-12T06:05:07.582Z,100534.16
2022-09-12T06:08:09.620Z,100533.41
2022-09-12T06:11:14.937Z,100544.25
2022-09-12T06:14:17.873Z,100521.81
2022-09-12T06:17:19.888Z,100529.75
2022-09-12T06:20:21.944Z,100542.50
2022-09-12T06:23:25.312Z,100538.69
2022-09-12T06:26:28.549Z,100538.16
2022-09-12T06:29:32.751Z,100540.78
2022-09-12T06:32:35.074Z,100552.34
2022-09-12T06:35:38.406Z,100553.25
2022-09-12T06:38:40.743Z,100551.84
2022-09-12T06:41:44.273Z,100552.50
2022-09-12T06:44:46.576Z,100545.91
2022-09-12T06:47:48.750Z,100558.81
2022-09-12T06:51:07.410Z,100561.31
2022-09-12T06:54:12.302Z,100551.44
2022-09-12T06:57:14.802Z,100561.66
2022-09-12T07:00:16.947Z,100542.25
2022-09-12T07:03:19.063Z,100548.63
2022-09-12T07:06:24.658Z,100551.59
2022-09-12T07:09:26.684Z,100536.38
2022-09-12T07:12:29.837Z,100554.00
2022-09-12T07:15:31.877Z,100549.66
2022-09-12T07:18:35.083Z,100555.94
2022-09-12T07:21:40.437Z,100543.28
2022-09-12T07:24:42.885Z,100554.22
2022-09-12T07:27:49.291Z,100546.63
2022-09-12T07:30:56.456Z,100555.69
2022-09-12T07:33:58.509Z,100552.50
2022-09-12T07:37:00.739Z,100557.41
2022-09-12T07:40:03.269Z,100556.13
2022-09-12T07:43:05.377Z,100563.63
2022-09-12T07:46:08.524Z,100567.97
2022-09-12T07:49:12.454Z,100563.97
2022-09-12T07:52:14.472Z,100545.84
2022-09-12T07:55:16.807Z,100557.94
2022-09-12T07:58:18.867Z,100537.81
2022-09-12T08:01:25.066Z,100540.34
2022-09-12T08:04:27.226Z,100527.94
2022-09-12T08:07:29.303Z,100555.34
2022-09-12T08:10:31.657Z,100523.13
2022-09-12T08:13:36.119Z,100546.50
2022-09-12T08:16:38.203Z,100540.94
2022-09-12T08:19:40.200Z,100540.72
2022-09-12T08:22:43.576Z,100534.44
2022-09-12T08:25:45.839Z,100538.47
2022-09-12T08:28:48.340Z,100537.63
2022-09-12T08:31:52.880Z,100536.72
2022-09-12T08:34:57.211Z,100530.13
2022-09-12T08:37:59.172Z,100541.13
2022-09-12T08:41:28.247Z,100539.53
2022-09-12T08:45:07.402Z,100539.81
2022-09-12T08:48:11.321Z,100534.94
2022-09-12T08:51:16.874Z,100537.84
2022-09-12T08:54:26.862Z,100533.31
2022-09-12T08:57:28.853Z,100532.19
2022-09-12T09:00:57.464Z,100528.91
2022-09-12T09:04:20.712Z,100519.22
2022-09-12T09:07:37.762Z,100533.03
2022-09-12T09:10:42.450Z,100525.50
2022-09-12T09:14:26.638Z,100527.84
2022-09-12T09:17:31.630Z,100534.06
2022-09-12T09:20:47.546Z,100525.97
2022-09-12T09:23:57.414Z,100531.69
2022-09-12T09:27:18.345Z,100534.44
2022-09-12T09:30:30.223Z,100524.19
2022-09-12T09:33:35.303Z,100502.09
2022-09-12T09:36:51.093Z,100528.72
2022-09-12T09:40:21.086Z,100531.31
2022-09-12T09:43:29.133Z,100529.88
2022-09-12T09:46:32.541Z,100536.97
2022-09-12T09:49:36.331Z,100526.66
2022-09-12T09:52:39.712Z,100541.25
2022-09-12T09:55:44.078Z,100530.34
2022-09-12T09:58:46.430Z,100537.19
2022-09-12T10:02:04.051Z,100541.66
2022-09-12T10:05:06.889Z,100528.44
2022-09-12T10:08:10.529Z,100529.00
2022-09-12T10:11:15.270Z,100531.19
2022-09-12T10:14:43.850Z,100537.41
2022-09-12T10:17:49.484Z,100529.13
2022-09-12T10:20:51.568Z,100534.16
2022-09-12T10:24:05.650Z,100547.81
2022-09-12T10:27:13.671Z,100552.34
2022-09-12T10:30:18.623Z,100539.94
2022-09-12T10:33:20.940Z,100551.50
2022-09-12T10:36:24.638Z,100538.31
2022-09-12T10:39:27.082Z,100541.53
2022-09-12T10:42:53.703Z,100556.19
2022-09-12T10:46:00.466Z,100554.78
2022-09-12T10:49:22.430Z,100553.25
2022-09-12T10:52:25.812Z,100554.84
2022-09-12T10:55:35.132Z,100549.63
2022-09-12T10:58:55.789Z,100554.97
2022-09-12T11:02:00.588Z,100540.09
2022-09-12T11:05:18.393Z,100548.97
2022-09-12T11:08:51.154Z,100547.88
2022-09-12T11:12:02.356Z,100546.75
2022-09-12T11:15:33.286Z,100560.06
2022-09-12T11:19:03.783Z,100556.72
2022-09-12T11:22:15.319Z,100552.94
2022-09-12T11:25:36.068Z,100544.91
2022-09-12T11:28:50.846Z,100555.13
2022-09-12T11:32:07.824Z,100554.75
2022-09-12T11:35:17.538Z,100552.84
2022-09-12T11:38:49.396Z,100552.09
2022-09-12T11:41:58.879Z,100536.19
2022-09-12T11:45:26.347Z,100553.53
2022-09-12T11:48:45.282Z,100539.34
2022-09-12T11:51:56.609Z,100541.09
2022-09-12T11:55:06.592Z,100538.47
2022-09-12T11:58:09.855Z,100554.78
2022-09-12T12:01:17.639Z,100559.41
2022-09-12T12:04:26.138Z,100553.22
2022-09-12T12:07:30.505Z,100560.00
2022-09-12T12:10:44.436Z,100570.50
2022-09-12T12:13:57.434Z,100578.03
2022-09-12T12:16:59.774Z,100585.47
2022-09-12T12:20:08.142Z,100579.09
2022-09-12T12:23:24.785Z,100571.66
2022-09-12T12:27:05.562Z,100580.97
2022-09-12T12:30:30.047Z,100577.84
2022-09-12T12:33:31.996Z,100576.84
2022-09-12T12:36:40.421Z,100584.56
2022-09-12T12:39:42.400Z,100577.28
2022-09-12T12:42:44.324Z,100581.53
2022-09-12T12:45:58.817Z,100572.06
2022-09-12T12:49:11.177Z,100569.03
2022-09-12T12:52:17.957Z,100562.09
2022-09-12T12:55:31.422Z,100567.78
2022-09-12T12:58:42.196Z,100575.31
2022-09-12T13:01:54.933Z,100570.50
2022-09-12T13:05:00.060Z,100563.94
2022-09-12T13:08:31.280Z,100536.22
2022-09-12T13:11:39.105Z,100574.44
2022-09-12T13:14:44.043Z,100585.25
2022-09-12T13:17:47.391Z,100566.81
2022-09-12T13:21:09.927Z,100568.47
2022-09-12T13:24:17.297Z,100562.34
2022-09-12T13:27:23.700Z,100566.31
2022-09-12T13:30:26.594Z,100579.19
2022-09-12T13:33:41.243Z,100589.06
2022-09-12T13:37:04.978Z,100580.63
2022-09-12T13:40:51.570Z,100609.97
2022-09-12T13:43:53.702Z,100585.50
2022-09-12T13:47:03.620Z,100587.63
2022-09-12T13:50:09.107Z,100586.41
2022-09-12T13:53:22.157Z,100597.41
2022-09-12T13:56:24.236Z,100598.94
2022-09-12T13:59:26.503Z,100589.75
2022-09-12T14:02:29.818Z,100597.63
2022-09-12T14:05:39.931Z,100586.66
2022-09-12T14:08:43.189Z,100589.78
2022-09-12T14:11:45.118Z,100587.75
2022-09-12T14:14:50.244Z,100596.78
2022-09-12T14:17:55.710Z,100609.28
2022-09-12T14:21:10.589Z,100613.06
2022-09-12T14:24:14.188Z,100608.44
2022-09-12T14:27:26.893Z,100601.38
2022-09-12T14:30:36.815Z,100601.13
2022-09-12T14:34:19.963Z,100613.03
2022-09-12T14:37:23.539Z,100601.34
2022-09-12T14:40:28.034Z,100589.72
2022-09-12T14:43:37.519Z,100597.84
2022-09-12T14:46:45.860Z,100599.28
2022-09-12T14:49:51.794Z,100587.63
2022-09-12T14:53:08.074Z,100599.06
2022-09-12T14:56:12.614Z,100608.56
2022-09-12T14:59:26.622Z,100607.47
2022-09-12T15:02:28.669Z,100615.22
2022-09-12T15:05:30.705Z,100606.66
2022-09-12T15:08:32.795Z,100608.00
2022-09-12T15:11:34.749Z,100607.84
2022-09-12T15:14:36.738Z,100621.69
2022-09-12T15:17:38.974Z,100617.69
2022-09-12T15:20:42.955Z,100614.13
2022-09-12T15:23:50.363Z,100608.63
2022-09-12T15:26:53.597Z,100614.00
2022-09-12T15:29:56.526Z,100598.63
2022-09-12T15:33:00.151Z,100609.28
2022-09-12T15:36:02.352Z,100610.97
2022-09-12T15:39:04.563Z,100616.59
2022-09-12T15:42:06.792Z,100624.66
2022-09-12T15:45:22.075Z,100625.44
2022-09-12T15:48:24.670Z,100624.91
2022-09-12T15:51:26.631Z,100596.84
2022-09-12T15:54:28.732Z,100618.47
2022-09-12T15:57:30.686Z,100628.59
2022-09-12T16:00:32.768Z,100626.63
2022-09-12T16:03:34.715Z,100626.06
2022-09-12T16:06:37.528Z,100632.81
2022-09-12T16:09:39.993Z,100625.16
2022-09-12T16:12:43.246Z,100628.34
2022-09-12T16:15:45.382Z,100631.13
2022-09-12T16:18:47.520Z,100639.94
2022-09-12T16:21:51.091Z,100634.47
2022-09-12T16:24:53.130Z,100643.94
2022-09-12T16:27:55.257Z,100653.28
2022-09-12T16:30:58.765Z,100628.91
2022-09-12T16:34:00.743Z,100642.72
2022-09-12T16:37:02.910Z,100642.66
2022-09-12T16:40:06.099Z,100639.31
2022-09-12T16:43:08.023Z,100649.44
2022-09-12T16:46:19.239Z,100659.41
2022-09-12T16:49:21.879Z,100647.66
2022-09-12T16:52:23.961Z,100662.72
2022-09-12T16:55:25.957Z,100660.34
2022-09-12T16:58:28.300Z,100654.63
2022-09-12T17:01:30.369Z,100661.63
2022-09-12T17:04:32.394Z,100665.31
2022-09-12T17:07:35.015Z,100658.00
2022-09-12T17:10:41.239Z,100663.59
2022-09-12T17:14:04.484Z,100672.56
2022-09-12T17:17:07.420Z,100680.56
2022-09-12T17:20:09.502Z,100674.63
2022-09-12T17:23:11.461Z,100693.72
2022-09-12T17:26:13.700Z,100682.78
2022-09-12T17:29:16.554Z,100693.91
2022-09-12T17:32:18.973Z,100680.44
2022-09-12T17:35:20.933Z,100688.53
2022-09-12T17:38:25.393Z,100679.97
2022-09-12T17:41:32.035Z,100676.94
2022-09-12T17:44:35.998Z,100675.38
2022-09-12T17:47:39.334Z,100690.88
2022-09-12T17:50:41.511Z,100685.06
2022-09-12T17:53:43.875Z,100680.38
2022-09-12T17:56:49.130Z,100697.03
2022-09-12T17:59:51.552Z,100681.47
2022-09-12T18:02:53.742Z,100679.50
2022-09-12T18:05:56.638Z,100687.66
2022-09-12T18:09:06.072Z,100690.53
2022-09-12T18:12:08.902Z,100685.81
2022-09-12T18:15:11.268Z,100671.16
2022-09-12T18:18:13.276Z,100684.94
2022-09-12T18:21:15.475Z,100678.47
2022-09-12T18:24:17.599Z,100678.25
2022-09-12T18:27:19.618Z,100668.97
2022-09-12T18:30:23.553Z,100677.81
2022-09-12T18:33:25.550Z,100675.16
2022-09-12T18:36:28.772Z,100683.72
2022-09-12T18:39:30.852Z,100643.09
2022-09-12T18:42:33.071Z,100666.97
2022-09-12T18:45:35.847Z,100675.69
2022-09-12T18:48:37.804Z,100672.75
2022-09-12T18:51:41.842Z,100665.47
2022-09-12T18:54:43.919Z,100665.28
2022-09-12T18:57:46.066Z,100667.25
2022-09-12T19:00:49.621Z,100660.25
2022-09-12T19:03:52.738Z,100671.97
2022-09-12T19:06:54.793Z,100656.44
2022-09-12T19:09:57.744Z,100669.06
2022-09-12T19:12:59.842Z,100672.00
2022-09-12T19:16:02.762Z,100660.31
2022-09-12T19:19:04.943Z,100666.53
2022-09-12T19:22:07.026Z,100665.59
2022-09-12T19:25:09.263Z,100644.06
2022-09-12T19:28:12.403Z,100665.59
2022-09-12T19:31:16.780Z,100637.41
2022-09-12T19:34:18.839Z,100660.50
2022-09-12T19:37:20.946Z,100654.66
2022-09-12T19:40:23.015Z,100659.94
2022-09-12T19:43:25.945Z,100663.53
2022-09-12T19:46:28.129Z,100643.50
2022-09-12T19:49:30.228Z,100665.41
2022-09-12T19:52:32.174Z,100663.69
2022-09-12T19:55:35.075Z,100653.28
2022-09-12T19:58:38.883Z,100646.13
2022-09-12T20:01:41.030Z,100656.69
2022-09-12T20:04:43.042Z,100642.88
2022-09-12T20:07:45.235Z,100652.69
2022-09-12T20:10:47.258Z,100634.91
2022-09-12T20:13:49.634Z,100651.66
2022-09-12T20:16:51.552Z,100645.97
2022-09-12T20:19:53.615Z,100636.44
2022-09-12T20:22:55.558Z,100629.13
2022-09-12T20:26:01.279Z,100650.16
2022-09-12T20:29:05.469Z,100660.38
2022-09-12T20:32:07.503Z,100644.59
2022-09-12T20:35:10.155Z,100652.84
2022-09-12T20:38:12.502Z,100661.97
2022-09-12T20:41:14.818Z,100645.72
2022-09-12T20:44:16.894Z,100664.69
2022-09-12T20:47:18.914Z,100645.69
2022-09-12T20:50:21.718Z,100652.00
2022-09-12T20:53:24.483Z,100660.25
2022-09-12T20:56:28.501Z,100658.13
2022-09-12T20:59:30.402Z,100658.44
2022-09-12T21:02:32.661Z,100655.56
2022-09-12T21:05:34.629Z,100648.50
2022-09-12T21:08:37.419Z,100634.91
2022-09-12T21:11:39.535Z,100632.59
2022-09-12T21:14:41.905Z,100635.53
2022-09-12T21:17:44.051Z,100639.78
2022-09-12T21:20:52.728Z,100647.50
2022-09-12T21:24:02.952Z,100647.25
2022-09-12T21:27:05.246Z,100640.72
2022-09-12T21:30:07.786Z,100645.06
2022-09-12T21:33:10.740Z,100647.34
2022-09-12T21:36:12.829Z,100627.41
2022-09-12T21:39:14.862Z,100644.56
2022-09-12T21:42:16.999Z,100638.09
2022-09-12T21:45:19.518Z,100643.53
2022-09-12T21:48:21.818Z,100634.91
2022-09-12T21:51:23.888Z,100637.50
2022-09-12T21:54:25.916Z,100636.09
2022-09-12T21:57:27.985Z,100620.13
2022-09-12T22:00:29.932Z,100640.31
2022-09-12T22:03:32.093Z,100633.50
2022-09-12T22:06:34.540Z,100629.91
2022-09-12T22:09:36.629Z,100630.84
2022-09-12T22:12:40.711Z,100624.84
2022-09-12T22:15:50.657Z,100634.47
2022-09-12T22:18:54.150Z,100600.41
2022-09-12T22:22:14.855Z,100613.72
2022-09-12T22:25:17.015Z,100619.56
2022-09-12T22:28:19.291Z,100617.28
2022-09-12T22:31:21.771Z,100608.31
2022-09-12T22:34:23.872Z,100634.47
2022-09-12T22:37:26.763Z,100633.47
2022-09-12T22:40:28.736Z,100630.28
2022-09-12T22:43:32.164Z,100638.19
2022-09-12T22:46:34.295Z,100629.38
2022-09-12T22:49:36.575Z,100631.84
2022-09-12T22:52:38.695Z,100627.34
2022-09-12T22:55:40.632Z,100622.91
2022-09-12T22:58:43.223Z,100628.75
2022-09-12T23:01:45.176Z,100632.28
2022-09-12T23:04:47.281Z,100612.53
2022-09-12T23:07:51.126Z,100632.97
2022-09-12T23:11:00.969Z,100629.19
2022-09-12T23:14:03.493Z,100616.94
2022-09-12T23:17:05.623Z,100613.59
2022-09-12T23:20:08.329Z,100625.56
2022-09-12T23:23:10.440Z,100617.53
2022-09-12T23:26:14.108Z,100622.50
2022-09-12T23:29:16.600Z,100624.59
2022-09-12T23:32:20.276Z,100616.22
2022-09-12T23:35:22.236Z,100612.63
2022-09-12T23:38:24.599Z,100612.22
2022-09-12T23:41:26.817Z,100611.09
2022-09-12T23:44:28.725Z,100605.88
2022-09-12T23:47:30.956Z,100600.25
2022-09-12T23:50:33.071Z,100610.03
2022-09-12T23:53:38.815Z,100593.88
2022-09-12T23:56:40.866Z,100613.78
2022-09-12T23:59:42.983Z,100608.91
